ETOU/WIE METAR and TAF weather

Enter ICAO airport designator
Station Type Date Time Source
ETOU METAR 2020/02/29 02:56 UTC NOAA

ETOU 290256Z AUTO 14004KT 9999 OVC025 06/02 A2966 RMK AO2 SLP051 60000 T00560022 57030 $


Station Type Date Time Source
ETOU Decoded METAR 2020/02/29 02:56 UTC NOAA

Wiesbaden, Germany (ETOU) 50-03N 008-20E
Feb 28, 2020 - 09:56 PM EST / 2020.02.29 0256 UTC
Wind: from the SE (140 degrees) at 5 MPH (4 KT):0
Visibility: greater than 7 mile(s):0
Sky conditions: overcast
Temperature: 42.1 F (5.6 C)
Dew Point: 36.0 F (2.2 C)
Relative Humidity: 78%
Pressure (altimeter): 29.66 in. Hg (1004 hPa)
Pressure tendency: 0.09 inches (3.0 hPa) lower than three hours ago
ob: ETOU 290256Z AUTO 14004KT 9999 OVC025 06/02 A2966 RMK AO2 SLP051 60000 T00560022 57030
cycle: 3

Station Type Date Time Source
ETOU TAF 2020/02/28 22:26 UTC NOAA

TAF
AMD ETOU 282220Z 2822/0102 21010G18KT 9000 -RA BR OVC015 620604 510307 QNH2990INS
BECMG 2906/2907 20012KT 9999 NSW SCT015 BKN025 620602 QNH2960INS
TEMPO 2915/2919 23020G35KT 8000 -SHRA 540003
BECMG 2920/2921 22009KT 9999 SCT035 QNH2951INS TX11/2912Z TN04/2822Z LAST NO
AMDS AFT 2822 NEXT 0204

Example: see airport list